LTBR/YEI METAR and TAF weather

Enter ICAO airport designator
Station Type Date Time Source
LTBR METAR 2019/08/25 03:20 UTC NOAA

LTBR 250320Z 00000KT 4500 BR NSC 16/16 Q1016 NOSIG


Station Type Date Time Source
LTBR Decoded METAR 2019/08/25 03:20 UTC NOAA

Station name not available
Aug 24, 2019 - 11:20 PM EDT / 2019.08.25 0320 UTC
Wind: Calm:0
Visibility: 2 mile(s):0
Weather: mist
Temperature: 60 F (16 C)
Dew Point: 60 F (16 C)
Relative Humidity: 100%
Pressure (altimeter): 30.00 in. Hg (1016 hPa)
ob: LTBR 250320Z 00000KT 4500 BR NSC 16/16 Q1016 NOSIG
cycle: 3

Station Type Date Time Source
LTBR TAF 2019/08/24 18:03 UTC NOAA

TAF LTBR 241640Z 2418/2518 VRB02KT CAVOK PROB30 2502/2506 4000 BR
BECMG 2510/2512 35012KT FEW035
BECMG 2515/2518 VRB02KT CAVOK

Example: see airport list